Terminal Aerodrome Forecast
Issued by NWS

Home | Current Version | Previous Version | Graphics & Text | Print | Product List | Glossary On
Versions: 1 2 3 4 5 6 7 8 9 10 11 12 13 14 15 16 17 18 19 20 21 22 23 24 25 26
000
FTUS43 KMPX 261814 CCA
TAFRWF
TAF COR
KRWF 261814Z 2618/2718 01006KT 6SM -RA OVC009
     FM261900 35006KT P6SM VCSH OVC015
     FM270000 VRB03KT P6SM SCT020 OVC200
     FM270300 26005KT P6SM BKN250
     FM270700 27006KT P6SM SKC=

USA.gov is the U.S. government's official web portal to all federal, state and local government web resources and services.